Time;durP1;ratioP1;P1;durP2;ratioP2;P2;SDS_P1;SDS_P2;PMS_P1;PMS_P2;Temp;Humidity;BMP_temperature;BMP_pressure;BME280_temperature;BME280_humidity;BME280_pressure;Samples;Min_cycle;Max_cycle;Signal;HPM_P1;HPM_P2
2020/12/07 00:02:23;;;;;;;49.23;31.83;;;;;;;4.02;84.87;98593.19;5006711;28;20230;-80
2020/12/07 00:04:48;;;;;;;47.80;31.73;;;;;;;4.07;84.43;98599.13;5025972;28;20248;-79
2020/12/07 00:07:15;;;;;;;54.97;33.50;;;;;;;4.13;83.91;98595.56;5006238;28;20227;-79
2020/12/07 00:09:41;;;;;;;56.03;35.00;;;;;;;4.07;84.51;98583.63;5004148;28;20203;-79
2020/12/07 00:12:07;;;;;;;57.77;35.63;;;;;;;4.02;84.18;98576.88;5013346;28;20679;-80
2020/12/07 00:14:33;;;;;;;59.60;33.80;;;;;;;4.07;84.08;98581.03;5004503;28;20206;-80
2020/12/07 00:16:59;;;;;;;55.73;33.10;;;;;;;4.12;84.33;98580.94;5004857;28;20670;-79
2020/12/07 00:19:25;;;;;;;53.10;32.63;;;;;;;4.15;83.35;98576.56;5018488;28;20207;-80
2020/12/07 00:21:51;;;;;;;51.93;32.00;;;;;;;4.20;84.02;98570.44;5008385;28;20259;-79
2020/12/07 00:24:17;;;;;;;54.03;33.53;;;;;;;4.23;84.33;98567.78;5005471;28;20286;-80
2020/12/07 00:26:43;;;;;;;52.40;32.10;;;;;;;4.23;84.27;98554.88;5004740;28;20347;-80
2020/12/07 00:29:09;;;;;;;55.53;33.03;;;;;;;4.20;83.89;98545.44;5013946;28;20312;-80
2020/12/07 00:31:36;;;;;;;51.33;32.60;;;;;;;4.28;83.74;98551.31;4998538;28;20685;-80
2020/12/07 00:34:03;;;;;;;49.93;32.63;;;;;;;4.30;83.36;98551.25;5014085;28;20680;-80
2020/12/07 00:36:29;;;;;;;57.03;34.70;;;;;;;4.23;83.55;98558.31;5009522;28;20203;-79
2020/12/07 00:38:55;;;;;;;57.70;34.70;;;;;;;4.18;83.74;98567.88;5014738;28;20222;-80
2020/12/07 00:41:22;;;;;;;50.37;32.47;;;;;;;4.14;84.38;98569.72;5007052;28;20207;-79
2020/12/07 00:43:48;;;;;;;51.67;32.20;;;;;;;4.11;84.24;98563.75;5003306;28;20223;-80
2020/12/07 00:46:14;;;;;;;58.73;34.03;;;;;;;4.17;84.25;98558.44;5004956;28;20227;-79
2020/12/07 00:48:41;;;;;;;53.87;33.07;;;;;;;4.18;84.27;98563.59;5010014;28;20282;-79
2020/12/07 00:51:07;;;;;;;47.63;32.13;;;;;;;4.16;84.03;98559.31;5011780;28;20195;-79
2020/12/07 00:53:33;;;;;;;53.07;33.10;;;;;;;4.21;83.44;98543.75;5015627;28;20203;-80
2020/12/07 00:56:00;;;;;;;53.57;33.40;;;;;;;4.11;84.29;98546.53;5014368;28;20656;-80
2020/12/07 00:58:25;;;;;;;55.70;33.90;;;;;;;4.20;84.43;98544.59;5019084;28;20273;-80
2020/12/07 01:00:52;;;;;;;50.43;32.00;;;;;;;4.15;84.49;98542.16;5015886;28;20293;-80
2020/12/07 01:03:18;;;;;;;49.80;30.37;;;;;;;4.24;84.19;98547.09;5016393;28;20246;-79
2020/12/07 01:05:44;;;;;;;49.30;32.80;;;;;;;4.19;84.21;98554.09;5017562;28;20239;-80
2020/12/07 01:08:10;;;;;;;43.90;30.77;;;;;;;4.16;84.11;98560.19;5009743;28;20226;-80
2020/12/07 01:10:36;;;;;;;51.17;31.23;;;;;;;4.15;84.41;98553.31;5019671;28;20207;-80
2020/12/07 01:13:02;;;;;;;49.93;30.47;;;;;;;4.20;84.42;98542.03;5015173;28;20289;-79
2020/12/07 01:15:28;;;;;;;53.27;32.73;;;;;;;4.19;84.54;98541.19;5009679;28;20249;-79
2020/12/07 01:17:54;;;;;;;50.93;31.40;;;;;;;4.14;84.65;98551.63;5020700;28;20218;-79
2020/12/07 01:20:20;;;;;;;56.87;33.87;;;;;;;4.04;84.75;98546.69;5007540;28;20219;-80
2020/12/07 01:22:46;;;;;;;55.63;32.63;;;;;;;4.08;84.78;98527.66;5010909;28;20219;-79
2020/12/07 01:25:12;;;;;;;55.70;33.50;;;;;;;4.09;84.39;98526.81;5003778;28;20211;-79
2020/12/07 01:27:38;;;;;;;59.20;33.40;;;;;;;4.13;84.60;98538.75;5008927;28;20232;-79
2020/12/07 01:30:04;;;;;;;52.10;32.07;;;;;;;4.14;84.35;98532.69;5012293;28;20556;-79
2020/12/07 01:32:30;;;;;;;52.30;32.53;;;;;;;4.13;84.44;98523.25;5009482;28;20269;-79
2020/12/07 01:34:56;;;;;;;52.17;32.37;;;;;;;4.16;84.39;98523.16;5009931;28;20204;-79
2020/12/07 01:37:22;;;;;;;55.67;32.73;;;;;;;4.24;83.90;98515.25;5008742;28;20370;-80
2020/12/07 01:39:48;;;;;;;47.73;31.77;;;;;;;4.22;83.63;98502.34;5009350;28;20749;-80
2020/12/07 01:42:14;;;;;;;53.07;32.50;;;;;;;4.28;83.54;98498.78;5007923;28;20223;-79
2020/12/07 01:44:40;;;;;;;54.03;33.00;;;;;;;4.28;83.39;98496.19;5014822;28;20198;-80
2020/12/07 01:47:20;;;;;;;53.60;31.87;;;;;;;4.33;83.41;98494.38;5006827;28;20199;-79
2020/12/07 01:49:47;;;;;;;48.33;30.90;;;;;;;4.31;83.16;98506.47;5012222;28;20205;-79
2020/12/07 01:52:13;;;;;;;47.87;30.83;;;;;;;4.30;82.91;98500.47;5006609;28;20203;-79
2020/12/07 01:54:39;;;;;;;46.63;30.17;;;;;;;4.26;83.16;98491.09;5014139;28;20257;-79
2020/12/07 01:57:05;;;;;;;45.40;30.27;;;;;;;4.28;83.28;98502.25;5014088;28;20204;-80
2020/12/07 01:59:31;;;;;;;48.80;31.50;;;;;;;4.27;83.20;98510.84;5016177;28;20563;-79
2020/12/07 02:01:57;;;;;;;48.50;30.87;;;;;;;4.29;83.21;98516.84;5004014;28;20246;-79
2020/12/07 02:04:23;;;;;;;51.70;31.97;;;;;;;4.23;83.48;98516.97;5015184;28;20685;-80
2020/12/07 02:06:49;;;;;;;55.87;32.57;;;;;;;4.17;83.26;98515.38;5007658;28;20231;-79
2020/12/07 02:09:15;;;;;;;50.97;32.97;;;;;;;4.17;83.22;98511.97;5016255;28;20310;-79
2020/12/07 02:11:40;;;;;;;51.47;32.33;;;;;;;4.10;83.08;98513.00;5011688;28;20203;-79
2020/12/07 02:14:07;;;;;;;50.53;32.80;;;;;;;4.06;83.94;98511.38;5014258;28;20195;-79
2020/12/07 02:16:33;;;;;;;45.83;32.57;;;;;;;4.06;83.98;98511.38;5015398;28;20207;-79
2020/12/07 02:18:59;;;;;;;51.40;32.43;;;;;;;4.04;84.20;98500.22;5018321;28;20277;-80
2020/12/07 02:21:25;;;;;;;45.97;30.63;;;;;;;4.02;84.10;98481.34;5006697;28;20242;-80
2020/12/07 02:23:51;;;;;;;47.87;32.40;;;;;;;4.06;84.52;98482.97;5015461;28;20227;-79
2020/12/07 02:26:17;;;;;;;49.63;31.03;;;;;;;4.09;84.50;98490.66;5009101;28;20261;-80
2020/12/07 02:28:43;;;;;;;47.70;31.07;;;;;;;4.12;84.09;98486.28;5014656;28;20259;-79
2020/12/07 02:31:09;;;;;;;52.77;32.47;;;;;;;4.08;84.65;98488.94;5007224;28;20239;-79
2020/12/07 02:33:35;;;;;;;46.60;30.53;;;;;;;4.09;84.53;98475.16;5010023;28;20298;-80
2020/12/07 02:36:00;;;;;;;45.67;32.17;;;;;;;4.12;84.33;98469.91;5014306;28;20226;-80
2020/12/07 02:38:27;;;;;;;51.43;33.43;;;;;;;4.07;84.35;98477.78;5012913;28;20262;-79
2020/12/07 02:40:53;;;;;;;45.00;30.83;;;;;;;4.11;84.62;98475.97;5010718;28;20204;-80
2020/12/07 02:43:19;;;;;;;48.63;31.03;;;;;;;4.17;84.27;98475.81;5009076;28;20265;-79
2020/12/07 02:45:45;;;;;;;48.63;32.07;;;;;;;4.14;84.21;98486.22;5011354;28;20237;-79
2020/12/07 02:48:10;;;;;;;52.43;31.00;;;;;;;4.06;84.60;98480.38;5010501;28;20242;-79
2020/12/07 02:50:36;;;;;;;51.27;32.90;;;;;;;4.07;84.80;98477.78;5011826;28;20199;-79
2020/12/07 02:53:02;;;;;;;46.97;31.40;;;;;;;4.12;84.23;98470.78;5017600;28;20575;-79
2020/12/07 02:55:29;;;;;;;45.50;30.50;;;;;;;4.18;84.38;98478.38;5011052;28;20265;-79
2020/12/07 02:57:54;;;;;;;50.70;31.60;;;;;;;4.21;84.08;98479.19;5010076;28;20231;-79
2020/12/07 03:00:20;;;;;;;47.87;30.23;;;;;;;4.21;83.79;98492.94;5012699;28;20712;-80
2020/12/07 03:02:46;;;;;;;44.13;31.10;;;;;;;4.22;84.30;98486.88;5017556;28;20233;-79
2020/12/07 03:05:12;;;;;;;47.13;31.90;;;;;;;4.23;84.35;98482.56;5014367;28;20276;-79
2020/12/07 03:07:38;;;;;;;51.40;32.07;;;;;;;4.21;84.49;98474.00;5016770;28;20248;-79
2020/12/07 03:10:04;;;;;;;48.27;31.27;;;;;;;4.26;83.75;98480.78;5014893;28;20286;-79
2020/12/07 03:12:30;;;;;;;42.20;29.50;;;;;;;4.25;84.35;98481.63;5016406;28;20199;-79
2020/12/07 03:14:56;;;;;;;49.73;32.17;;;;;;;4.25;84.09;98501.47;5015403;28;20199;-79
2020/12/07 03:17:22;;;;;;;44.40;29.77;;;;;;;4.20;84.59;98505.88;5006985;28;20215;-79
2020/12/07 03:19:48;;;;;;;47.10;30.63;;;;;;;4.24;84.42;98504.91;5010885;28;20274;-79
2020/12/07 03:22:14;;;;;;;51.33;32.47;;;;;;;4.25;84.51;98499.72;4998183;28;20613;-79
2020/12/07 03:24:40;;;;;;;53.00;33.17;;;;;;;4.26;84.51;98501.44;5006062;28;20199;-80
2020/12/07 03:27:06;;;;;;;48.10;31.33;;;;;;;4.28;84.81;98485.88;5005994;28;20206;-80
2020/12/07 03:29:33;;;;;;;45.57;31.90;;;;;;;4.22;84.87;98489.44;5019840;28;20199;-80
2020/12/07 03:31:59;;;;;;;52.50;33.27;;;;;;;4.19;84.71;98492.13;4998955;28;20670;-79
2020/12/07 03:34:24;;;;;;;47.27;31.57;;;;;;;4.13;84.53;98480.22;5012496;28;20207;-80
2020/12/07 03:36:50;;;;;;;48.93;31.47;;;;;;;4.18;84.52;98468.03;5006831;28;20661;-79
2020/12/07 03:39:16;;;;;;;54.23;34.10;;;;;;;4.04;84.46;98471.84;5017558;28;20210;-80
2020/12/07 03:41:42;;;;;;;54.97;34.03;;;;;;;3.85;85.36;98453.38;5001626;28;20202;-79
2020/12/07 03:44:08;;;;;;;60.17;33.87;;;;;;;3.98;85.01;98457.34;5009450;28;20746;-80
2020/12/07 03:46:35;;;;;;;53.63;32.73;;;;;;;3.91;85.10;98456.66;5006040;28;20201;-79
2020/12/07 03:49:01;;;;;;;62.10;35.07;;;;;;;3.88;85.27;98451.53;5013049;28;20293;-79
2020/12/07 03:51:27;;;;;;;56.63;32.43;;;;;;;3.92;85.26;98457.50;4999376;28;20207;-80
2020/12/07 03:53:52;;;;;;;52.83;32.97;;;;;;;4.00;85.16;98458.16;4999772;28;20303;-80
2020/12/07 03:56:18;;;;;;;53.87;33.43;;;;;;;4.05;85.57;98469.22;5008283;28;20261;-80
2020/12/07 03:58:44;;;;;;;52.60;32.43;;;;;;;4.09;85.02;98482.91;5010266;28;20230;-80
2020/12/07 04:01:10;;;;;;;51.17;32.83;;;;;;;4.13;85.02;98497.44;5009120;28;20218;-79
2020/12/07 04:03:39;;;;;;;53.07;32.90;;;;;;;4.16;84.77;98492.19;5004700;28;20691;-80
2020/12/07 04:06:09;;;;;;;53.57;33.00;;;;;;;4.19;84.81;98489.53;5006819;28;20203;-80
2020/12/07 04:08:35;;;;;;;47.50;31.43;;;;;;;4.27;84.65;98491.94;5006338;28;20227;-79
2020/12/07 04:11:00;;;;;;;53.80;32.50;;;;;;;4.28;84.42;98483.28;5008206;28;20200;-80
2020/12/07 04:13:26;;;;;;;55.43;32.87;;;;;;;4.20;84.40;98475.72;5001828;28;20203;-79
2020/12/07 04:15:52;;;;;;;49.37;31.27;;;;;;;4.18;84.62;98455.13;5006616;28;20199;-79
2020/12/07 04:18:18;;;;;;;49.00;31.93;;;;;;;4.22;84.80;98445.53;5010698;28;20262;-80
2020/12/07 04:20:45;;;;;;;57.10;33.13;;;;;;;4.17;85.14;98457.75;5013927;28;20202;-80
2020/12/07 04:23:11;;;;;;;58.37;33.63;;;;;;;4.06;84.88;98462.31;5015025;28;20227;-80
2020/12/07 04:25:36;;;;;;;58.03;34.57;;;;;;;4.10;85.33;98454.47;5006480;28;20297;-80
2020/12/07 04:28:02;;;;;;;49.67;32.23;;;;;;;4.17;84.89;98452.59;5013827;28;20306;-80
2020/12/07 04:30:28;;;;;;;53.23;31.03;;;;;;;4.15;85.00;98450.03;5011291;28;20257;-80
2020/12/07 04:32:54;;;;;;;57.27;33.37;;;;;;;4.15;84.65;98447.44;5000598;28;20615;-79
2020/12/07 04:35:20;;;;;;;55.50;33.10;;;;;;;4.19;84.39;98440.47;5009810;28;20208;-80
2020/12/07 04:37:47;;;;;;;49.30;32.23;;;;;;;4.25;84.76;98435.16;5011969;28;20218;-80
2020/12/07 04:40:13;;;;;;;55.30;33.13;;;;;;;4.26;84.63;98442.03;5013743;28;20207;-79
2020/12/07 04:42:41;;;;;;;48.17;32.30;;;;;;;4.30;84.66;98438.47;5007026;28;20245;-80
2020/12/07 04:45:07;;;;;;;54.40;32.57;;;;;;;4.29;84.50;98439.34;5011647;28;20203;-80
2020/12/07 04:47:34;;;;;;;53.93;33.13;;;;;;;4.33;84.33;98446.13;5007290;28;20696;-80
2020/12/07 04:50:04;;;;;;;48.87;30.97;;;;;;;4.30;84.49;98442.78;5011032;28;20657;-80
2020/12/07 04:52:31;;;;;;;52.80;33.27;;;;;;;4.23;84.55;98434.34;5002937;28;20199;-80
2020/12/07 04:54:59;;;;;;;54.60;33.20;;;;;;;4.18;84.90;98439.63;5011472;28;20214;-80
2020/12/07 04:57:25;;;;;;;50.77;32.80;;;;;;;4.19;85.34;98445.66;5014178;28;20227;-80
2020/12/07 04:59:52;;;;;;;53.10;33.27;;;;;;;4.15;85.40;98421.63;5014993;28;20206;-80
2020/12/07 05:02:18;;;;;;;48.83;32.03;;;;;;;4.14;85.21;98416.50;5002858;28;20278;-81
2020/12/07 05:04:44;;;;;;;57.57;34.93;;;;;;;4.11;85.19;98439.84;5012916;28;20282;-80
2020/12/07 05:07:10;;;;;;;53.70;33.13;;;;;;;4.16;85.65;98436.25;5005627;28;20202;-80
2020/12/07 05:09:37;;;;;;;59.90;34.37;;;;;;;4.26;84.84;98429.13;5009141;28;20207;-80
2020/12/07 05:12:08;;;;;;;54.93;32.93;;;;;;;4.26;84.59;98417.91;5013217;28;20203;-80
2020/12/07 05:14:34;;;;;;;48.27;31.70;;;;;;;4.26;84.70;98421.38;5008561;28;20747;-80
2020/12/07 05:17:00;;;;;;;59.90;33.73;;;;;;;4.20;85.05;98431.81;5012147;28;20195;-80
2020/12/07 05:19:26;;;;;;;51.27;32.00;;;;;;;4.24;85.17;98442.94;5016578;28;20245;-80
2020/12/07 05:21:52;;;;;;;48.90;32.03;;;;;;;4.27;84.95;98445.44;5013638;28;20553;-80
2020/12/07 05:24:18;;;;;;;46.53;30.03;;;;;;;4.26;84.89;98451.50;5005955;28;20238;-80
2020/12/07 05:26:45;;;;;;;47.90;31.27;;;;;;;4.30;84.72;98450.53;4996457;28;20725;-80
2020/12/07 05:29:16;;;;;;;50.53;31.30;;;;;;;4.27;84.49;98453.19;5014566;28;20599;-79
2020/12/07 05:31:43;;;;;;;53.13;32.17;;;;;;;4.33;84.57;98456.47;5001333;28;20583;-80
2020/12/07 05:34:09;;;;;;;49.03;31.00;;;;;;;4.39;84.75;98463.22;5009853;28;20211;-79
2020/12/07 05:36:35;;;;;;;52.63;32.07;;;;;;;4.43;84.27;98461.41;5000133;28;20203;-80
2020/12/07 05:39:01;;;;;;;55.23;31.83;;;;;;;4.40;84.64;98457.16;5014049;28;20763;-80
2020/12/07 05:41:29;;;;;;;51.50;32.33;;;;;;;4.37;84.63;98464.97;5005726;28;20262;-80
2020/12/07 05:43:56;;;;;;;51.33;30.77;;;;;;;4.36;84.38;98482.22;5010458;28;20228;-80
2020/12/07 05:46:26;;;;;;;52.20;31.90;;;;;;;4.35;84.77;98480.50;5014644;28;20845;-80
2020/12/07 05:48:53;;;;;;;49.80;31.07;;;;;;;4.28;84.99;98467.78;5010442;28;20711;-80
2020/12/07 05:51:23;;;;;;;46.93;31.23;;;;;;;4.26;85.31;98459.22;5008237;28;20203;-79
2020/12/07 05:53:50;;;;;;;51.10;32.57;;;;;;;4.29;85.59;98452.25;5010068;28;20255;-80
2020/12/07 05:56:16;;;;;;;51.33;31.80;;;;;;;4.28;85.46;98448.00;5019057;28;20207;-80
2020/12/07 05:58:55;;;;;;;53.63;32.70;;;;;;;4.35;85.66;98451.25;5013327;28;20228;-80
2020/12/07 06:01:24;;;;;;;59.70;35.40;;;;;;;4.26;85.90;98451.50;5010356;28;20204;-80
2020/12/07 06:03:52;;;;;;;51.40;32.80;;;;;;;4.23;86.14;98454.16;5016836;28;20277;-80
2020/12/07 06:06:30;;;;;;;55.53;33.57;;;;;;;4.20;86.45;98455.06;5007893;28;20286;-80
2020/12/07 06:08:57;;;;;;;52.30;32.87;;;;;;;4.19;86.94;98463.72;5016291;28;20317;-79
2020/12/07 06:11:24;;;;;;;54.83;33.27;;;;;;;4.28;87.07;98465.22;5008211;28;20250;-80
2020/12/07 06:13:51;;;;;;;51.30;31.77;;;;;;;4.33;86.85;98474.53;5020131;28;20203;-80
2020/12/07 06:16:17;;;;;;;52.30;33.23;;;;;;;4.44;86.43;98470.84;5012350;28;20253;-80
2020/12/07 06:18:45;;;;;;;50.53;32.50;;;;;;;4.46;86.34;98466.47;5012207;28;20281;-80
2020/12/07 06:21:16;;;;;;;50.00;32.57;;;;;;;4.51;86.20;98473.22;5008570;28;20203;-80
2020/12/07 06:23:42;;;;;;;52.53;32.40;;;;;;;4.53;85.96;98486.09;5009352;28;20644;-80
2020/12/07 06:26:10;;;;;;;45.20;30.30;;;;;;;4.59;85.84;98475.59;5015552;28;20611;-80
2020/12/07 06:28:37;;;;;;;41.87;29.67;;;;;;;4.55;86.09;98474.00;5011391;28;20237;-80
2020/12/07 06:31:05;;;;;;;38.50;28.43;;;;;;;4.54;85.96;98480.06;5015238;28;20199;-80
2020/12/07 06:33:38;;;;;;;40.87;28.80;;;;;;;4.51;86.22;98490.47;5018103;28;20207;-80
2020/12/07 06:36:05;;;;;;;53.20;31.60;;;;;;;4.46;86.31;98494.88;5009764;28;20302;-81
2020/12/07 06:38:40;;;;;;;53.27;32.33;;;;;;;4.31;86.00;98488.38;5013004;28;20708;-80
2020/12/07 06:41:06;;;;;;;51.57;31.67;;;;;;;4.38;85.92;98495.94;5009339;28;20617;-81
2020/12/07 06:43:33;;;;;;;57.37;34.27;;;;;;;4.40;85.74;98502.78;5008486;28;20230;-79
2020/12/07 06:45:59;;;;;;;48.97;32.47;;;;;;;4.45;85.50;98494.03;5009416;28;20206;-81
2020/12/07 06:48:26;;;;;;;52.17;32.77;;;;;;;4.43;86.03;98507.91;5013651;28;20720;-82
2020/12/07 06:50:54;;;;;;;57.50;34.00;;;;;;;4.46;85.31;98516.41;5012758;28;20286;-81
2020/12/07 06:56:11;;;;;;;49.20;32.23;;;;;;;4.47;85.50;98517.25;5021140;28;20255;-80
2020/12/07 06:58:38;;;;;;;51.80;32.20;;;;;;;4.46;85.72;98515.56;5026015;28;20226;-80
2020/12/07 07:01:08;;;;;;;51.47;32.17;;;;;;;4.45;86.05;98521.63;5025548;28;20242;-80
2020/12/07 07:03:34;;;;;;;44.67;29.20;;;;;;;4.43;85.77;98528.56;5027736;28;20222;-81
2020/12/07 07:06:07;;;;;;;53.20;33.20;;;;;;;4.30;85.57;98520.25;5026164;28;20253;-80
2020/12/07 07:08:36;;;;;;;53.73;31.20;;;;;;;4.23;86.09;98516.13;5025346;28;20222;-81
2020/12/07 07:11:03;;;;;;;53.83;30.87;;;;;;;4.16;86.67;98505.09;5025624;28;20283;-80
2020/12/07 07:13:28;;;;;;;55.00;32.17;;;;;;;4.22;87.05;98504.09;5023313;28;20289;-81
2020/12/07 07:15:55;;;;;;;50.87;30.97;;;;;;;4.26;86.83;98504.00;5022895;28;20199;-80
2020/12/07 07:18:21;;;;;;;45.43;30.57;;;;;;;4.33;86.82;98518.44;5025273;28;20276;-80
2020/12/07 07:20:47;;;;;;;40.07;27.53;;;;;;;4.29;86.54;98522.00;5024788;28;20657;-80
2020/12/07 07:23:13;;;;;;;25.13;22.07;;;;;;;4.25;86.29;98537.63;5025634;28;20256;-81
2020/12/07 07:25:50;;;;;;;35.23;25.03;;;;;;;4.24;86.59;98531.59;5025272;28;20206;-80
2020/12/07 07:28:16;;;;;;;21.17;19.10;;;;;;;4.13;86.22;98531.00;5023868;28;20695;-80
2020/12/07 07:30:42;;;;;;;21.03;19.03;;;;;;;4.27;86.18;98538.44;5024818;28;20297;-81
2020/12/07 07:33:08;;;;;;;19.50;17.80;;;;;;;4.36;85.92;98531.31;5028739;28;20207;-80
2020/12/07 07:35:34;;;;;;;19.07;17.37;;;;;;;4.42;86.08;98545.81;5023796;28;20576;-81
2020/12/07 07:38:00;;;;;;;18.50;16.80;;;;;;;4.41;85.75;98541.50;5030463;28;20237;-80
2020/12/07 07:40:28;;;;;;;17.67;16.10;;;;;;;4.46;85.81;98549.13;5027444;28;20206;-80
2020/12/07 07:43:33;;;;;;;17.93;16.17;;;;;;;4.48;85.58;98558.56;5027113;28;20264;-81
2020/12/07 07:46:00;;;;;;;15.03;13.73;;;;;;;4.53;85.44;98581.69;5014729;28;20277;-81
2020/12/07 07:48:34;;;;;;;16.73;15.10;;;;;;;4.54;85.29;98573.06;5023570;28;20242;-81
2020/12/07 07:54:16;;;;;;;17.00;15.50;;;;;;;4.57;85.23;98584.16;5024348;28;20220;-80
2020/12/07 08:00:25;;;;;;;16.67;15.17;;;;;;;4.49;86.01;98590.41;5023586;28;20244;-80
2020/12/07 08:16:57;;;;;;;7.67;7.07;;;;;;;4.51;84.12;98593.81;5020013;28;20676;-80
2020/12/07 08:19:24;;;;;;;7.23;6.63;;;;;;;4.49;83.72;98598.16;5024549;28;20206;-83
2020/12/07 08:21:53;;;;;;;8.07;7.47;;;;;;;4.57;83.87;98616.91;5024003;28;20557;-82
2020/12/07 08:27:12;;;;;;;7.10;6.60;;;;;;;4.48;83.81;98605.06;5026683;28;20207;-82
2020/12/07 08:29:38;;;;;;;7.27;6.67;;;;;;;4.46;83.58;98606.84;5026720;28;20202;-82
2020/12/07 08:32:04;;;;;;;7.70;7.10;;;;;;;4.45;83.84;98627.53;5026306;28;20269;-82
2020/12/07 08:34:30;;;;;;;7.53;6.93;;;;;;;4.50;83.72;98657.56;5026398;28;20270;-80
2020/12/07 08:36:56;;;;;;;8.20;7.53;;;;;;;4.47;83.78;98651.59;5026317;28;20208;-80
2020/12/07 08:39:22;;;;;;;8.47;7.67;;;;;;;4.47;83.52;98641.25;5029375;28;20596;-81
2020/12/07 08:41:48;;;;;;;9.07;8.27;;;;;;;4.44;83.64;98631.88;5028373;28;20676;-80
2020/12/07 08:44:14;;;;;;;8.47;7.77;;;;;;;4.44;83.59;98641.31;5025443;28;20264;-81
2020/12/07 08:46:40;;;;;;;8.40;7.70;;;;;;;4.45;83.31;98653.38;5025475;28;20221;-81
2020/12/07 08:49:07;;;;;;;8.70;8.00;;;;;;;4.41;83.13;98655.16;5028909;28;20227;-81
2020/12/07 08:51:37;;;;;;;8.83;8.07;;;;;;;4.45;83.73;98661.13;5026413;28;20195;-81
2020/12/07 08:54:15;;;;;;;8.07;7.43;;;;;;;4.52;83.84;98666.13;5027125;28;20198;-80
2020/12/07 08:56:41;;;;;;;7.90;7.30;;;;;;;4.57;83.74;98660.84;5017668;28;20203;-82
2020/12/07 08:59:07;;;;;;;8.80;8.10;;;;;;;4.61;83.24;98659.03;5028824;28;20646;-80
2020/12/07 09:01:32;;;;;;;7.80;7.20;;;;;;;4.65;83.34;98669.25;5026271;28;20643;-82
2020/12/07 09:04:01;;;;;;;8.20;7.60;;;;;;;4.63;83.40;98668.44;5027703;28;20260;-82
2020/12/07 09:06:27;;;;;;;8.13;7.53;;;;;;;4.52;83.30;98668.69;5022507;28;20214;-81
2020/12/07 09:08:54;;;;;;;8.80;8.03;;;;;;;4.63;83.88;98690.84;5019694;28;20230;-82
2020/12/07 09:11:20;;;;;;;9.13;8.43;;;;;;;4.66;83.50;98695.94;5028281;28;20208;-80
2020/12/07 09:13:47;;;;;;;9.07;8.30;;;;;;;4.56;83.60;98690.16;5027273;28;20668;-82
2020/12/07 09:16:13;;;;;;;10.38;9.57;;;;;;;4.57;83.30;98690.09;5029222;28;20450;-83
2020/12/07 09:18:40;;;;;;;9.10;8.40;;;;;;;4.43;83.27;98680.97;5031113;28;20228;-81
2020/12/07 09:21:07;;;;;;;9.87;9.10;;;;;;;4.51;83.07;98690.25;5030694;28;20205;-79
2020/12/07 09:23:34;;;;;;;10.13;9.23;;;;;;;4.57;84.06;98674.59;5026004;28;20246;-81
2020/12/07 09:26:01;;;;;;;9.57;8.77;;;;;;;4.62;83.55;98684.84;5029614;28;20264;-82
2020/12/07 09:28:27;;;;;;;9.97;9.07;;;;;;;4.60;83.29;98686.63;5029741;28;20628;-82
2020/12/07 09:30:53;;;;;;;11.43;10.63;;;;;;;4.62;83.57;98679.69;5020799;28;20449;-82
2020/12/07 09:33:19;;;;;;;9.90;9.10;;;;;;;4.53;83.01;98693.63;5021630;28;20225;-80
2020/12/07 09:35:45;;;;;;;10.27;9.40;;;;;;;4.55;83.71;98699.63;5020861;28;20281;-83
2020/12/07 09:38:11;;;;;;;9.97;9.13;;;;;;;4.64;83.80;98697.69;5028745;28;20221;-83
2020/12/07 09:40:37;;;;;;;8.80;8.10;;;;;;;4.62;84.02;98704.66;5020533;28;20203;-84
2020/12/07 09:43:04;;;;;;;9.03;8.23;;;;;;;4.63;83.63;98696.03;5024230;28;20286;-82
2020/12/07 09:45:30;;;;;;;9.47;8.77;;;;;;;4.55;83.52;98702.19;5021025;28;20200;-82
2020/12/07 09:47:57;;;;;;;9.47;8.67;;;;;;;4.58;83.76;98704.72;5024410;28;20223;-84
2020/12/07 09:50:38;;;;;;;9.47;8.70;;;;;;;4.67;83.84;98701.06;5020299;28;20253;-83
2020/12/07 09:53:16;;;;;;;10.30;9.40;;;;;;;4.71;83.61;98712.19;5020095;28;20218;-82
2020/12/07 09:55:59;;;;;;;9.70;8.90;;;;;;;4.60;83.60;98707.28;5016671;28;20669;-82
2020/12/07 09:58:26;;;;;;;9.93;9.13;;;;;;;4.61;83.97;98716.72;5014018;28;20293;-82
2020/12/07 10:00:52;;;;;;;9.53;8.77;;;;;;;4.56;84.08;98714.25;5014507;28;20205;-82
2020/12/07 10:03:18;;;;;;;8.83;8.07;;;;;;;4.60;84.04;98719.34;5008250;28;20322;-80
2020/12/07 10:05:44;;;;;;;8.10;7.50;;;;;;;4.62;83.76;98722.72;5017816;28;20213;-82
2020/12/07 10:08:10;;;;;;;7.70;7.10;;;;;;;4.65;83.83;98722.69;5026671;28;20889;-84
2020/12/07 10:10:35;;;;;;;8.67;8.07;;;;;;;4.69;84.16;98735.47;5024478;28;20662;-84
2020/12/07 10:13:01;;;;;;;9.33;8.53;;;;;;;4.74;84.13;98749.16;5023519;28;20222;-81
2020/12/07 10:15:28;;;;;;;8.30;7.60;;;;;;;4.64;83.11;98732.16;5019461;28;20603;-80
2020/12/07 10:17:54;;;;;;;8.80;8.20;;;;;;;4.73;83.50;98736.28;5014994;28;20497;-82
2020/12/07 10:20:20;;;;;;;8.17;7.57;;;;;;;4.75;83.00;98740.50;5011672;28;20207;-82
2020/12/07 10:22:56;;;;;;;7.80;7.20;;;;;;;4.80;83.43;98747.31;5018580;28;20206;-82
2020/12/07 10:25:25;;;;;;;7.60;7.00;;;;;;;4.89;83.44;98752.28;5016387;28;20219;-82
2020/12/07 10:27:51;;;;;;;7.50;6.90;;;;;;;4.94;82.87;98750.44;5025559;28;20219;-80
2020/12/07 10:30:17;;;;;;;7.97;7.27;;;;;;;4.91;82.51;98746.19;5021634;28;20609;-83
2020/12/07 10:36:49;;;;;;;6.20;5.70;;;;;;;4.77;81.46;98750.81;5019810;28;20252;-83
2020/12/07 10:39:36;;;;;;;6.40;5.90;;;;;;;4.81;81.96;98749.03;5011566;28;20257;-85
2020/12/07 10:42:02;;;;;;;6.70;6.20;;;;;;;4.88;81.87;98743.69;5006199;28;20247;-80
2020/12/07 10:44:28;;;;;;;7.00;6.50;;;;;;;4.86;82.00;98739.44;5013452;28;20224;-82
2020/12/07 10:46:54;;;;;;;6.80;6.20;;;;;;;4.88;82.31;98761.78;5010656;28;20602;-81
2020/12/07 10:49:20;;;;;;;5.93;5.57;;;;;;;4.92;82.16;98762.56;5011573;28;20223;-81
2020/12/07 10:51:47;;;;;;;6.80;6.40;;;;;;;4.88;82.28;98769.53;5002547;28;20537;-81
2020/12/07 10:54:13;;;;;;;6.33;5.83;;;;;;;4.91;82.31;98774.63;5015533;28;20217;-80
2020/12/07 10:56:43;;;;;;;6.10;5.70;;;;;;;4.95;82.23;98770.22;5009836;28;20203;-79
2020/12/07 10:59:09;;;;;;;6.13;5.73;;;;;;;5.00;81.72;98777.91;5006834;28;20276;-81
2020/12/07 11:01:34;;;;;;;5.40;5.00;;;;;;;4.98;81.49;98781.34;5000512;28;20196;-82
2020/12/07 11:04:27;;;;;;;5.53;5.13;;;;;;;5.04;81.74;98780.38;5009294;28;20288;-82
2020/12/07 11:06:54;;;;;;;5.93;5.53;;;;;;;5.10;80.41;98787.97;5017839;28;20199;-81
2020/12/07 11:09:23;;;;;;;5.33;5.03;;;;;;;5.14;81.55;98799.09;5011123;28;20211;-79
2020/12/07 11:11:53;;;;;;;4.33;4.03;;;;;;;5.08;80.06;98801.84;5015750;28;20215;-81
2020/12/07 11:14:21;;;;;;;5.90;5.50;;;;;;;5.09;80.87;98793.19;5017380;28;20218;-83
2020/12/07 11:16:47;;;;;;;4.83;4.53;;;;;;;4.96;79.80;98795.22;5005601;28;20635;-82
2020/12/07 11:19:13;;;;;;;4.90;4.60;;;;;;;5.02;80.76;98789.06;5016793;28;20226;-81
2020/12/07 11:21:39;;;;;;;5.05;4.75;;;;;;;5.07;80.57;98787.19;5008220;28;20444;-81
2020/12/07 11:24:05;;;;;;;4.43;4.13;;;;;;;5.03;80.27;98791.59;5010504;28;20224;-84
2020/12/07 11:26:46;;;;;;;6.70;6.20;;;;;;;5.23;84.61;98793.69;5013097;28;20308;-82
2020/12/07 11:29:58;;;;;;;4.30;4.00;;;;;;;5.30;82.49;98799.59;4956739;28;20223;-80
2020/12/07 11:36:27;;;;;;;4.50;4.20;;;;;;;5.34;80.81;98806.41;4871814;28;20269;-81
2020/12/07 11:39:05;;;;;;;3.50;3.30;;;;;;;5.53;82.82;98799.88;5008589;28;20226;-80
2020/12/07 11:41:44;;;;;;;4.20;3.90;;;;;;;5.60;80.58;98797.16;4999135;28;20527;-80
2020/12/07 11:44:12;;;;;;;3.97;3.67;;;;;;;5.63;79.61;98799.63;5010101;28;20716;-81
2020/12/07 11:46:41;;;;;;;3.97;3.67;;;;;;;5.67;79.51;98806.44;5002050;28;20602;-80
2020/12/07 11:49:07;;;;;;;3.67;3.47;;;;;;;5.66;79.28;98809.94;5017480;28;20228;-81
2020/12/07 11:54:58;;;;;;;3.93;3.73;;;;;;;5.78;79.37;98804.44;4933156;28;20836;-81
2020/12/07 11:57:27;;;;;;;3.27;3.07;;;;;;;5.85;81.33;98797.38;5016071;28;20259;-83
2020/12/07 12:00:17;;;;;;;3.30;3.10;;;;;;;5.89;78.58;98799.81;5009932;28;20200;-81
2020/12/07 12:03:13;;;;;;;3.27;3.07;;;;;;;5.93;77.59;98811.81;5003998;28;20251;-82
2020/12/07 12:29:48;;;;;;;2.70;2.50;;;;;;;5.75;76.37;98823.50;4888095;29;20749;-84
2020/12/07 12:32:15;;;;;;;2.30;2.20;;;;;;;5.56;76.27;98825.69;4885388;29;20298;-82
2020/12/07 12:34:40;;;;;;;2.20;2.10;;;;;;;5.54;75.92;98835.22;4897926;29;20216;-81